Latest Weather Observations for Avalon

IDV60801

Issued at 5:32 pm EDT Thursday 23 February 2017 (issued every 30 minutes, with the page automatically refreshed every 10 minutes)

About weather observations | Map of weather stations | Latest weather observations for VIC | Other Formats
Station Details ID: 087113 Name: AVALON AIRPORT Lat: -38.03 Lon: 144.48 Height: 10.6 m
Data from the previous 72 hours. | See also: Recent months at Avalon
Date/Time
EDT
Temp
°C
App
Temp
°C
Dew
Point
°C
Rel
Hum
%
Delta-T
°C
Wind Press
QNH
hPa
Press
MSL
hPa
Rain since
9am
mm
Dir  Spd
km/h
Gust
km/h
Spd
kts
Gust
kts
23/05:30pm 23.5 20.8 14.5 57 5.3 S 22 28 12 15 1018.3 1018.3 0.0
23/05:00pm 23.7 21.1 13.8 53 5.8 SSW 20 28 11 15 1017.9 1017.9 0.0
23/04:30pm 24.5 21.6 12.8 48 6.8 S 20 30 11 16 1017.8 1017.8 0.0
23/04:00pm 23.4 20.5 13.0 52 6.0 S 20 28 11 15 1017.8 1017.8 0.0
23/03:30pm 25.6 22.4 11.4 41 8.0 WSW 19 28 10 15 1017.8 1017.8 0.0
23/03:00pm 24.6 21.3 11.5 44 7.4 WSW 20 32 11 17 1017.9 1017.9 0.0
23/02:30pm 24.6 21.0 11.9 45 7.2 W 22 33 12 18 1018.0 1018.0 0.0
23/02:00pm 24.4 20.8 11.7 45 7.2 WNW 22 33 12 18 1018.0 1018.0 0.0
23/01:30pm 23.0 19.1 12.0 50 6.2 WSW 24 37 13 20 1018.1 1018.1 0.0
23/01:00pm 23.0 19.4 12.0 50 6.2 WNW 22 30 12 16 1018.1 1018.1 0.0
23/12:30pm 22.4 19.3 12.1 52 5.8 W 20 26 11 14 1018.2 1018.2 0.0
23/12:00pm 22.5 19.0 12.2 52 5.8 W 22 33 12 18 1018.2 1018.2 0.0
23/11:30am 21.0 16.7 12.2 57 4.9 W 26 35 14 19 1018.3 1018.3 0.0
23/11:00am 20.8 16.1 12.0 57 4.9 WNW 28 35 15 19 1018.1 1018.1 0.0
23/10:30am 20.5 17.5 12.7 61 4.4 W 20 28 11 15 1017.8 1017.8 0.0
23/10:00am 20.7 16.7 12.9 61 4.4 WNW 26 35 14 19 1017.4 1017.4 0.0
23/09:30am 19.7 16.3 12.5 63 4.0 WNW 22 30 12 16 1017.1 1017.1 0.0
23/09:00am 18.6 17.3 12.6 68 3.3 WNW 11 17 6 9 1016.9 1016.9 0.0
23/08:30am 17.9 16.4 11.9 68 3.3 NW 11 13 6 7 1016.6 1016.6 0.0
23/08:00am 17.2 15.2 11.5 69 3.1 W 13 20 7 11 1016.4 1016.4 0.0
23/07:30am 16.2 14.5 11.2 72 2.7 NW 11 20 6 11 1015.6 1015.6 0.0
23/07:00am 14.7 12.5 10.7 77 2.1 NNW 13 20 7 11 1014.9 1014.9 0.0
23/06:30am 14.6 12.6 10.2 75 2.3 N 11 11 6 6 1014.3 1014.3 0.0
23/06:00am 14.8 12.5 10.4 75 2.3 NNW 13 13 7 7 1013.8 1013.8 0.0
23/05:30am 16.2 15.1 10.7 70 2.9 NNW 7 9 4 5 1013.5 1013.5 0.0
23/05:00am 15.1 14.0 10.5 74 2.4 N 7 11 4 6 1013.2 1013.2 0.0
23/04:30am 16.1 16.0 10.8 71 2.8 N 2 9 1 5 1012.9 1012.9 0.0
23/04:00am 16.3 16.6 11.0 71 2.8 CALM 0 0 0 0 1012.7 1012.7 0.0
23/03:30am 16.9 15.8 10.7 67 3.3 WNW 7 9 4 5 1012.7 1012.7 0.0
23/03:00am 17.5 15.5 11.5 68 3.3 NW 13 17 7 9 1012.4 1012.4 0.0
23/02:30am 16.4 14.9 11.8 74 2.5 NE 11 15 6 8 1012.4 1012.4 0.0
23/02:00am 17.7 18.3 11.9 69 3.2 CALM 0 0 0 0 1012.4 1012.4 0.0
23/01:30am 17.7 17.0 11.9 69 3.2 NNW 7 9 4 5 1012.2 1012.2 0.0
23/01:00am 18.0 16.2 12.0 68 3.3 NW 13 13 7 7 1012.0 1012.0 0.0
23/12:30am 18.3 17.5 11.8 66 3.6 NW 7 9 4 5 1011.5 1011.5 0.0
23/12:00am 19.0 16.3 11.8 63 4.0 W 17 20 9 11 1011.1 1011.1 0.0
 
Date/Time
EDT
Temp
°C
App
Temp
°C
Dew
Point
°C
Rel
Hum
%
Delta-T
°C
Wind Press
QNH
hPa
Press
MSL
hPa
Rain since
9am
mm
Dir  Spd
km/h
Gust
km/h
Spd
kts
Gust
kts
22/11:30pm 19.7 16.5 12.0 61 4.3 W 20 28 11 15 1011.1 1011.1 0.0
22/11:00pm 19.6 19.4 13.5 68 3.5 WSW 7 11 4 6 1010.7 1010.7 0.0
22/10:30pm 19.5 17.5 13.9 70 3.2 SSW 17 24 9 13 1010.3 1010.3 0.0
22/10:00pm 21.5 15.2 11.2 52 5.7 WSW 35 50 19 27 1009.8 1009.8 0.0
22/09:50pm 22.5 17.1 10.9 48 6.4 W 30 50 16 27 1009.3 1009.3 0.0
22/09:45pm 23.6 18.8 10.3 43 7.3 W 26 43 14 23 1009.0 1009.0 0.0
22/09:30pm 26.7 21.9 2.6 21 11.8 NNE 17 20 9 11 1007.3 1007.3 0.0
22/09:00pm 27.7 22.4 2.0 19 12.5 N 19 20 10 11 1007.0 1007.0 0.0
22/08:30pm 28.5 23.6 1.9 18 13.0 N 17 20 9 11 1006.9 1006.9 0.0
22/08:00pm 30.3 25.4 1.7 16 14.1 N 17 24 9 13 1006.8 1006.8 0.0
22/07:30pm 32.8 26.2 1.8 14 15.5 N 26 35 14 19 1006.6 1006.6 0.0
22/07:00pm 33.9 25.9 1.6 13 16.3 N 33 44 18 24 1006.6 1006.6 0.0
22/06:31pm 34.1 26.1 1.8 13 16.3 N 33 52 18 28 1006.8 1006.8 0.0
22/06:30pm 34.1 26.3 1.8 13 16.3 N 32 44 17 24 1006.8 1006.8 0.0
22/06:00pm 33.8 25.0 1.6 13 16.2 N 37 56 20 30 1007.0 1007.0 0.0
22/05:30pm 34.6 25.0 1.1 12 16.8 NNW 41 63 22 34 1007.4 1007.4 0.0
22/05:07pm 34.9 26.8 1.3 12 16.9 N 33 54 18 29 1007.5 1007.5 0.0
22/05:00pm 35.2 27.2 1.5 12 17.1 N 33 46 18 25 1007.8 1007.8 0.0
22/04:34pm 34.4 26.8 3.1 14 16.2 N 32 54 17 29 1007.9 1007.9 0.0
22/04:30pm 34.0 26.4 2.8 14 16.0 N 32 46 17 25 1007.9 1007.9 0.0
22/04:00pm 33.7 26.2 4.4 16 15.4 NNW 33 48 18 26 1008.7 1008.7 0.0
22/03:30pm 33.7 26.8 4.4 16 15.4 N 30 41 16 22 1009.0 1009.0 0.0
22/03:15pm 32.9 25.5 3.8 16 15.1 N 32 52 17 28 1009.2 1009.2 0.0
22/03:00pm 33.6 26.4 5.2 17 15.2 N 32 46 17 25 1009.2 1009.2 0.0
22/02:30pm 32.4 26.0 5.1 18 14.4 NNE 28 46 15 25 1009.5 1009.5 0.0
22/02:00pm 31.6 24.8 5.2 19 13.9 NNE 30 43 16 23 1010.8 1010.8 0.0
22/01:30pm 31.3 24.8 4.9 19 13.8 NNW 28 43 15 23 1011.2 1011.2 0.0
22/01:00pm 31.4 25.3 5.0 19 13.9 N 26 37 14 20 1011.9 1011.9 0.0
22/12:30pm 30.1 24.4 4.7 20 13.2 NNE 24 37 13 20 1012.4 1012.4 0.0
22/12:00pm 29.6 22.3 4.3 20 13.0 N 32 43 17 23 1013.0 1013.0 0.0
22/11:30am 28.0 20.8 5.0 23 11.8 N 32 41 17 22 1013.6 1013.6 0.0
22/11:00am 27.8 20.6 4.8 23 11.8 N 32 46 17 25 1013.8 1013.8 0.0
22/10:30am 26.2 20.7 5.7 27 10.6 NNE 24 35 13 19 1014.3 1014.3 0.0
22/10:00am 23.2 19.8 7.7 37 8.1 NNE 15 20 8 11 1014.8 1014.8 0.0
22/09:30am 19.8 16.8 9.1 50 5.6 NE 15 19 8 10 1014.9 1014.9 0.0
22/09:00am 15.1 12.8 10.3 73 2.5 E 13 15 7 8 1015.0 1015.0 0.0
22/08:30am 14.0 11.5 9.6 75 2.3 NE 13 15 7 8 1015.2 1015.2 0.0
22/08:00am 11.9 9.6 9.1 83 1.4 ENE 11 17 6 9 1015.1 1015.1 0.0
22/07:30am 9.8 6.6 8.4 91 0.7 NE 15 17 8 9 1014.9 1014.9 0.0
22/07:00am 8.6 5.6 7.5 93 0.5 NE 13 15 7 8 1014.9 1014.9 0.0
22/06:30am 10.9 8.3 9.3 90 0.8 ENE 13 17 7 9 1014.8 1014.8 0.0
22/06:00am 10.3 8.4 9.1 92 0.6 ENE 9 11 5 6 1014.8 1014.8 0.0
22/05:30am 10.0 7.8 9.2 95 0.4 ENE 11 13 6 7 1014.7 1014.7 0.0
22/05:00am 11.2 9.6 10.3 94 0.5 NNE 9 13 5 7 1015.0 1015.0 0.0
22/04:30am 11.3 9.5 10.8 97 0.3 NNE 11 13 6 7 1015.2 1015.2 0.0
22/04:00am 10.7 10.5 10.5 99 0.1 N 2 9 1 5 1015.5 1015.5 0.0
22/03:30am 11.2 9.7 10.7 97 0.3 N 9 9 5 5 1015.7 1015.7 0.0
22/03:00am 11.5 11.8 11.0 97 0.3 CALM 0 0 0 0 1016.0 1016.0 0.0
22/02:30am 11.6 10.9 11.4 99 0.1 NNW 6 7 3 4 1016.3 1016.3 0.0
22/02:00am 12.4 11.8 12.2 99 0.1 NNW 7 7 4 4 1016.5 1016.5 0.0
22/01:30am 11.9 10.9 11.1 95 0.4 W 7 9 4 5 1017.1 1017.1 0.0
22/01:00am 12.9 12.1 11.8 93 0.6 NW 7 9 4 5 1017.5 1017.5 0.0
22/12:30am 13.2 12.6 11.8 91 0.7 NNE 6 7 3 4 1018.0 1018.0 0.0
22/12:00am 13.3 12.4 10.8 85 1.3 NNE 6 9 3 5 1018.3 1018.3 0.0
 
Date/Time
EDT
Temp
°C
App
Temp
°C
Dew
Point
°C
Rel
Hum
%
Delta-T
°C
Wind Press
QNH
hPa
Press
MSL
hPa
Rain since
9am
mm
Dir  Spd
km/h
Gust
km/h
Spd
kts
Gust
kts
21/11:30pm 15.7 15.0 13.2 85 1.4 E 9 9 5 5 1018.5 1018.5 0.0
21/11:00pm 15.2 13.6 12.7 85 1.4 ESE 13 15 7 8 1018.6 1018.6 0.0
21/10:30pm 16.1 14.3 13.4 84 1.5 ESE 15 19 8 10 1018.9 1018.9 0.0
21/10:00pm 15.5 13.9 12.8 84 1.5 SE 13 15 7 8 1018.8 1018.8 0.0
21/09:30pm 15.5 14.1 12.3 81 1.7 ESE 11 13 6 7 1018.6 1018.6 0.0
21/09:00pm 15.8 15.0 11.8 77 2.2 SE 7 9 4 5 1018.3 1018.3 0.0
21/08:30pm 16.7 15.2 12.0 74 2.6 SSE 11 13 6 7 1018.0 1018.0 0.0
21/08:00pm 18.3 15.9 10.2 59 4.3 SSE 13 15 7 8 1017.8 1017.8 0.0
21/07:30pm 19.9 17.0 10.9 56 4.9 SE 17 22 9 12 1017.6 1017.6 0.0
21/07:00pm 20.7 16.8 9.6 49 5.9 SE 20 24 11 13 1017.5 1017.5 0.0
21/06:30pm 21.1 16.8 10.6 51 5.7 ESE 24 28 13 15 1017.6 1017.6 0.0
21/06:00pm 21.6 17.3 9.2 45 6.6 ESE 22 26 12 14 1017.5 1017.5 0.0
21/05:30pm 21.7 16.7 8.2 42 7.1 ESE 24 28 13 15 1017.8 1017.8 0.0
21/05:00pm 21.9 17.6 9.4 45 6.7 ESE 22 30 12 16 1018.0 1018.0 0.0
21/04:30pm 21.7 17.2 8.6 43 6.9 ESE 22 28 12 15 1018.4 1018.4 0.0
21/04:00pm 21.3 16.2 7.5 41 7.1 ESE 24 32 13 17 1018.8 1018.8 0.0
21/03:30pm 21.6 16.8 8.8 44 6.8 ESE 24 30 13 16 1019.1 1019.1 0.0
21/03:00pm 21.2 16.7 8.5 44 6.7 ESE 22 28 12 15 1019.5 1019.5 0.0
21/02:30pm 21.0 16.5 8.6 45 6.5 SE 22 28 12 15 1019.8 1019.8 0.0
21/02:00pm 21.6 17.2 8.8 44 6.8 SE 22 30 12 16 1020.1 1020.1 0.0
21/01:30pm 20.4 17.5 8.1 45 6.4 SE 13 20 7 11 1020.4 1020.4 0.0
21/01:00pm 20.0 16.8 8.4 47 6.0 E 15 24 8 13 1020.6 1020.6 0.0
21/12:30pm 20.6 17.5 8.9 47 6.2 SE 15 32 8 17 1021.2 1021.2 0.0
21/12:00pm 19.3 18.7 8.9 51 5.4 SE 2 7 1 4 1021.5 1021.5 0.0
21/11:30am 18.9 17.3 8.8 52 5.3 SSE 7 15 4 8 1021.5 1021.5 0.0
21/11:00am 19.2 17.9 9.9 55 4.9 ESE 7 17 4 9 1021.5 1021.5 0.0
21/10:30am 18.2 17.1 10.8 62 4.0 WSW 7 15 4 8 1021.8 1021.8 0.0
21/10:00am 16.5 14.5 10.1 66 3.4 W 11 17 6 9 1021.7 1021.7 0.0
21/09:30am 15.1 12.3 10.1 72 2.6 WNW 15 19 8 10 1021.7 1021.7 0.0
21/09:00am 13.5 10.2 9.7 78 1.9 W 17 20 9 11 1021.5 1021.5 0.0
21/08:30am 12.4 9.2 10.0 85 1.2 WNW 17 20 9 11 1021.1 1021.1 0.0
21/08:00am 10.8 8.3 9.7 93 0.6 WNW 13 15 7 8 1020.8 1020.8 0.0
21/07:30am 9.1 7.1 8.5 96 0.3 WNW 9 11 5 6 1020.4 1020.4 0.0
21/07:00am 8.2 5.4 7.1 93 0.5 W 11 13 6 7 1020.1 1020.1 0.0
21/06:30am 8.8 5.9 8.0 95 0.4 WNW 13 15 7 8 1019.6 1019.6 0.0
21/06:00am 8.7 6.1 7.9 95 0.4 NW 11 13 6 7 1019.1 1019.1 0.0
21/05:30am 8.2 5.9 7.3 94 0.4 WNW 9 11 5 6 1019.0 1019.0 0.0
21/05:00am 8.6 6.3 7.4 92 0.6 WNW 9 11 5 6 1019.1 1019.1 0.0
21/04:30am 9.3 6.3 7.9 91 0.7 WNW 13 15 7 8 1018.9 1018.9 0.0
21/04:00am 9.7 6.8 8.0 89 0.8 WNW 13 15 7 8 1018.9 1018.9 0.0
21/03:30am 10.0 6.8 8.3 89 0.8 NW 15 17 8 9 1018.7 1018.7 0.0
21/03:00am 10.1 7.2 8.2 88 0.9 WNW 13 17 7 9 1018.8 1018.8 0.0
21/02:30am 10.4 7.2 8.3 87 1.0 WNW 15 17 8 9 1018.7 1018.7 0.0
21/02:00am 10.4 7.2 8.3 87 1.0 NW 15 17 8 9 1018.7 1018.7 0.0
21/01:30am 10.4 7.5 8.2 86 1.1 NW 13 15 7 8 1019.0 1019.0 0.0
21/01:00am 10.3 7.0 8.1 86 1.1 NW 15 17 8 9 1019.0 1019.0 0.0
21/12:30am 11.4 8.6 8.4 82 1.5 WNW 13 15 7 8 1019.1 1019.1 0.0
21/12:00am 12.4 9.5 8.3 76 2.0 WSW 13 15 7 8 1018.9 1018.9 0.0
 
Date/Time
EDT
Temp
°C
App
Temp
°C
Dew
Point
°C
Rel
Hum
%
Delta-T
°C
Wind Press
QNH
hPa
Press
MSL
hPa
Rain since
9am
mm
Dir  Spd
km/h
Gust
km/h
Spd
kts
Gust
kts
20/11:30pm 13.2 9.7 8.7 74 2.3 W 17 22 9 12 1018.8 1018.8 0.0
20/11:00pm 12.9 10.0 8.2 73 2.3 WNW 13 17 7 9 1018.7 1018.7 0.0
20/10:30pm 14.1 10.4 8.1 67 3.0 WSW 17 20 9 11 1018.5 1018.5 0.0
20/10:00pm 14.5 11.1 7.8 64 3.3 W 15 20 8 11 1018.3 1018.3 0.0
20/09:30pm 15.2 12.2 7.5 60 3.8 W 13 20 7 11 1017.8 1017.8 0.0
20/09:00pm 15.7 11.4 7.2 57 4.2 WSW 19 24 10 13 1017.3 1017.3 0.0
20/08:30pm 16.5 12.0 6.9 53 4.7 WSW 20 28 11 15 1016.8 1016.8 0.0
20/08:00pm 17.3 11.2 6.8 50 5.2 WSW 28 39 15 21 1016.4 1016.4 0.0
20/07:30pm 18.2 12.9 6.7 47 5.7 WSW 24 32 13 17 1015.8 1015.8 0.0
20/07:00pm 18.8 12.4 5.3 41 6.6 WSW 28 35 15 19 1015.4 1015.4 0.0
20/06:30pm 19.5 12.4 5.6 40 6.8 WSW 32 41 17 22 1015.0 1015.0 0.0
20/06:00pm 18.8 14.5 9.3 54 5.0 SW 22 32 12 17 1014.6 1014.6 0.0

Other Formats:

Comma delimited format used in spreadsheet applications
http://www.bom.gov.au/fwo/IDV60801/IDV60801.94854.axf

JavaScript Object Notation format (JSON) in row-major order
http://www.bom.gov.au/fwo/IDV60801/IDV60801.94854.json